New Milton, West Virginia
Current Conditions -  °F | °C
As of 9:53 AM on Saturday 25 Oct 2014 (Local Time) from KCKB Reporting Station
Scattered Clouds Scattered Clouds  
Wind Chill: 47°   Ceiling: Unl
Heat Index: 49°   Visibility: 10mi
Dew Point: 42°   Wind: 6mph
Humidity: 77%   Direction: 190°S
Pressure: 30.01"   Gusts: NA
Location:  39.23°N, 80.68°W
Report Text: KCKB 251353Z 19005KT 10SM SCT039 09/06 A3001 RMK AO2 SLP160 T00940056
Loading
Personal Weather Stations






























Interactive Weather Map
Tropical Storm Tracking
New forecast layout! Learn more

10-Day Weather Forecast

Advertisements
Track Severe Weather on mobile